Time;durP1;ratioP1;P1;durP2;ratioP2;P2;SDS_P1;SDS_P2;PMS_P1;PMS_P2;Temp;Humidity;BMP_temperature;BMP_pressure;BME280_temperature;BME280_humidity;BME280_pressure;Samples;Min_cycle;Max_cycle;Signal;HPM_P1;HPM_P2
2023/11/26 00:01:43;;;;;;;9.70;6.30;;;;;;;-1.63;88.14;98533.55;216986;1265;139495;-68
2023/11/26 00:06:50;;;;;;;10.50;6.60;;;;;;;-1.65;87.94;98544.08;217390;1268;139855;-70
2023/11/26 00:11:54;;;;;;;12.40;6.10;;;;;;;-1.67;87.92;98546.84;218166;1266;141093;-68
2023/11/26 00:17:00;;;;;;;8.40;5.50;;;;;;;-1.67;88.15;98553.63;218196;1265;139912;-69
2023/11/26 00:22:05;;;;;;;10.80;5.70;;;;;;;-1.66;87.94;98562.44;218547;1265;140176;-71
2023/11/26 00:27:11;;;;;;;18.50;7.70;;;;;;;-1.66;87.88;98572.85;219445;1265;140002;-72
2023/11/26 00:32:15;;;;;;;9.10;5.30;;;;;;;-1.63;87.83;98579.83;219332;1265;139984;-67
2023/11/26 00:37:20;;;;;;;8.80;6.40;;;;;;;-1.61;87.68;98595.77;218433;1266;140075;-70
2023/11/26 00:42:25;;;;;;;9.10;6.70;;;;;;;-1.63;87.34;98599.02;217513;1268;142031;-68
2023/11/26 00:47:29;;;;;;;7.70;4.80;;;;;;;-1.67;87.43;98605.59;216578;1268;139379;-66
2023/11/26 00:52:35;;;;;;;12.50;6.70;;;;;;;-1.73;87.39;98607.65;217395;1265;140038;-68
2023/11/26 00:57:40;;;;;;;10.10;6.00;;;;;;;-1.79;87.39;98607.62;216433;1264;140595;-67
2023/11/26 01:02:46;;;;;;;12.70;5.60;;;;;;;-1.89;87.27;98621.30;217417;1266;139734;-67
2023/11/26 01:07:52;;;;;;;9.80;5.80;;;;;;;-1.94;87.39;98630.00;217569;1265;140001;-68
2023/11/26 01:12:56;;;;;;;8.50;5.20;;;;;;;-1.98;87.40;98633.67;217272;1265;140136;-68
2023/11/26 01:18:01;;;;;;;7.60;4.80;;;;;;;-2.07;87.42;98627.70;217354;1265;140698;-68
2023/11/26 01:23:06;;;;;;;8.40;5.20;;;;;;;-2.05;87.60;98628.27;216363;1266;139632;-66
2023/11/26 01:28:11;;;;;;;10.00;5.50;;;;;;;-2.03;87.78;98625.05;216882;1266;141625;-70
2023/11/26 01:33:18;;;;;;;7.50;4.40;;;;;;;-2.02;87.74;98622.45;217242;1265;139723;-70
2023/11/26 01:38:23;;;;;;;11.20;7.30;;;;;;;-2.04;87.60;98620.61;217305;1266;141878;-68
2023/11/26 01:43:28;;;;;;;6.20;4.20;;;;;;;-2.06;87.59;98623.60;216587;1266;139767;-67
2023/11/26 01:48:38;;;;;;;9.80;4.60;;;;;;;-2.09;87.41;98633.53;217464;1268;140807;-71
2023/11/26 01:53:49;;;;;;;10.80;6.00;;;;;;;-2.13;87.50;98641.55;217917;1268;140867;-70
2023/11/26 01:58:56;;;;;;;13.10;4.70;;;;;;;-2.17;87.62;98643.96;216618;1266;140981;-71
2023/11/26 02:04:00;;;;;;;5.40;3.90;;;;;;;-2.21;87.44;98645.91;217593;1265;140945;-69
2023/11/26 02:09:06;;;;;;;8.20;6.00;;;;;;;-2.27;87.27;98642.88;216867;1267;139462;-69
2023/11/26 02:14:11;;;;;;;7.50;4.40;;;;;;;-2.31;87.38;98648.17;217398;1266;141545;-70
2023/11/26 02:19:32;;;;;;;12.20;5.80;;;;;;;-2.39;87.08;98655.91;218243;1268;140077;-72
2023/11/26 02:24:48;;;;;;;8.00;5.30;;;;;;;-2.46;87.40;98662.98;217794;1265;140242;-68
2023/11/26 02:29:53;;;;;;;12.50;4.80;;;;;;;-2.49;87.45;98667.99;218121;1267;141087;-69
2023/11/26 02:34:58;;;;;;;7.90;5.00;;;;;;;-2.50;87.46;98666.92;219108;1265;140182;-72
2023/11/26 02:40:05;;;;;;;10.00;5.50;;;;;;;-2.52;87.41;98666.95;218115;1265;145639;-70
2023/11/26 02:45:09;;;;;;;8.00;4.50;;;;;;;-2.51;87.41;98671.52;218179;1265;140928;-71
2023/11/26 02:50:13;;;;;;;12.70;6.40;;;;;;;-2.52;87.28;98677.55;217124;1265;141884;-68
2023/11/26 02:55:18;;;;;;;16.00;5.80;;;;;;;-2.54;87.38;98684.09;216459;1266;139977;-68
2023/11/26 03:00:22;;;;;;;9.50;4.70;;;;;;;-2.57;87.51;98691.21;218052;1266;140275;-67
2023/11/26 03:05:27;;;;;;;6.20;4.00;;;;;;;-2.61;87.42;98690.46;216672;1268;141961;-67
2023/11/26 03:15:57;;;;;;;5.80;4.10;;;;;;;-2.62;87.77;98698.31;216760;1268;140837;-68
2023/11/26 03:21:03;;;;;;;21.60;9.60;;;;;;;-2.63;87.83;98697.36;216694;1268;139813;-68
2023/11/26 03:26:07;;;;;;;16.50;7.70;;;;;;;-2.69;87.71;98703.23;217045;1266;140085;-67
2023/11/26 03:31:12;;;;;;;9.30;5.80;;;;;;;-2.75;87.63;98708.77;216465;1268;141180;-70
2023/11/26 03:36:17;;;;;;;7.60;3.80;;;;;;;-2.79;87.80;98708.00;216905;1266;140617;-71
2023/11/26 03:41:21;;;;;;;8.60;3.10;;;;;;;-2.83;87.70;98707.08;216535;1266;140499;-70
2023/11/26 03:46:26;;;;;;;6.50;3.80;;;;;;;-2.87;87.84;98709.27;217933;1268;140090;-69
2023/11/26 03:51:31;;;;;;;5.70;2.30;;;;;;;-2.88;87.97;98708.91;217227;1267;141670;-69
2023/11/26 03:56:36;;;;;;;10.00;3.20;;;;;;;-2.91;87.92;98718.57;216788;1268;140234;-69
2023/11/26 04:01:41;;;;;;;6.00;3.20;;;;;;;-2.94;87.97;98718.82;216600;1268;140047;-66
2023/11/26 04:06:47;;;;;;;7.40;3.10;;;;;;;-2.98;88.00;98723.36;217051;1268;140331;-69
2023/11/26 04:11:56;;;;;;;5.90;4.40;;;;;;;-3.02;87.94;98720.72;216899;1266;139592;-70
2023/11/26 04:17:02;;;;;;;9.30;5.20;;;;;;;-3.05;88.16;98728.85;218533;1267;140493;-66
2023/11/26 04:22:07;;;;;;;8.70;3.20;;;;;;;-3.06;88.02;98736.14;217905;1268;139844;-68
2023/11/26 04:27:12;;;;;;;3.90;3.40;;;;;;;-3.09;88.11;98739.68;217497;1266;139525;-69
2023/11/26 04:32:16;;;;;;;19.10;11.80;;;;;;;-3.11;87.99;98742.06;217588;1267;139780;-70
2023/11/26 04:37:20;;;;;;;5.50;3.80;;;;;;;-3.13;88.17;98752.34;217942;1268;140526;-69
2023/11/26 04:42:24;;;;;;;8.90;5.70;;;;;;;-3.15;88.05;98759.52;217171;1265;141766;-68
2023/11/26 04:47:29;;;;;;;6.70;4.50;;;;;;;-3.18;88.14;98760.94;217290;1268;140535;-69
2023/11/26 04:52:36;;;;;;;6.70;4.20;;;;;;;-3.19;88.26;98767.06;217293;1269;140727;-68
2023/11/26 04:57:41;;;;;;;7.20;3.80;;;;;;;-3.19;88.32;98776.67;216581;1269;140445;-68
2023/11/26 05:02:46;;;;;;;7.50;4.00;;;;;;;-3.20;88.28;98779.59;217046;1266;139728;-70
2023/11/26 05:07:51;;;;;;;6.80;2.70;;;;;;;-3.25;88.28;98790.58;217135;1267;141098;-68
2023/11/26 05:12:56;;;;;;;5.50;3.20;;;;;;;-3.28;88.25;98793.52;216896;1269;139933;-68
2023/11/26 05:18:00;;;;;;;5.60;4.00;;;;;;;-3.30;88.28;98795.58;217424;1269;139873;-67
2023/11/26 05:23:05;;;;;;;6.20;3.30;;;;;;;-3.31;88.34;98799.98;216516;1265;140578;-67
2023/11/26 05:28:10;;;;;;;9.10;4.30;;;;;;;-3.33;88.28;98799.47;217993;1267;141710;-70
2023/11/26 05:33:14;;;;;;;4.70;2.80;;;;;;;-3.36;88.32;98806.23;217445;1269;139819;-69
2023/11/26 05:38:19;;;;;;;6.70;3.20;;;;;;;-3.37;88.42;98815.04;217287;1266;140064;-68
2023/11/26 05:43:23;;;;;;;8.20;4.80;;;;;;;-3.37;88.36;98822.30;217736;1267;140810;-71
2023/11/26 05:48:27;;;;;;;3.90;2.70;;;;;;;-3.38;88.45;98824.69;217081;1267;139763;-69
2023/11/26 05:53:32;;;;;;;8.60;5.20;;;;;;;-3.41;88.53;98828.34;217560;1265;140070;-68
2023/11/26 05:58:37;;;;;;;6.30;4.10;;;;;;;-3.45;88.58;98823.02;217185;1267;141012;-67
2023/11/26 06:03:42;;;;;;;8.60;5.30;;;;;;;-3.46;88.65;98833.14;217597;1266;140056;-68
2023/11/26 06:08:46;;;;;;;4.10;3.00;;;;;;;-3.45;88.79;98838.31;218303;1267;142282;-69
2023/11/26 06:13:52;;;;;;;4.00;2.90;;;;;;;-3.44;88.88;98844.79;216634;1267;139613;-67
2023/11/26 06:18:57;;;;;;;8.80;3.80;;;;;;;-3.41;89.03;98853.88;218038;1266;140029;-66
2023/11/26 06:24:01;;;;;;;3.10;2.70;;;;;;;-3.39;88.85;98853.65;218462;1267;139846;-67
2023/11/26 06:29:06;;;;;;;2.70;2.20;;;;;;;-3.35;88.96;98852.51;216783;1267;139886;-67
2023/11/26 06:34:13;;;;;;;;;;;;;;;-3.32;88.95;98860.27;218243;1266;139826;-67
2023/11/26 06:39:19;;;;;;;3.60;2.20;;;;;;;-3.28;89.25;98868.58;217428;1267;126802;-67
2023/11/26 06:44:23;;;;;;;6.40;3.00;;;;;;;-3.21;89.17;98875.08;217404;1267;140445;-67
2023/11/26 06:49:28;;;;;;;5.00;2.60;;;;;;;-3.14;89.34;98882.77;217796;1267;140660;-68
2023/11/26 06:54:33;;;;;;;2.40;2.20;;;;;;;-3.06;89.36;98896.41;217567;1266;139570;-68
2023/11/26 06:59:38;;;;;;;3.50;2.80;;;;;;;-2.91;89.24;98902.90;216973;1267;139667;-65
2023/11/26 07:04:43;;;;;;;4.80;3.40;;;;;;;-2.71;89.28;98910.89;216959;1265;139686;-69
2023/11/26 07:09:48;;;;;;;4.50;2.70;;;;;;;-2.60;89.10;98916.16;216970;1267;140956;-67
2023/11/26 07:14:52;;;;;;;4.00;2.30;;;;;;;-2.51;88.89;98926.08;217667;1265;140032;-68
2023/11/26 07:19:57;;;;;;;7.30;3.20;;;;;;;-2.44;88.68;98928.66;217638;1267;140660;-69
2023/11/26 07:25:02;;;;;;;7.30;3.30;;;;;;;-2.38;88.74;98932.02;216827;1266;139731;-68
2023/11/26 07:30:09;;;;;;;3.30;2.90;;;;;;;-2.32;88.47;98941.20;217214;1267;139628;-71
2023/11/26 07:35:14;;;;;;;3.80;3.10;;;;;;;-2.22;88.54;98952.76;216607;1268;139564;-72
2023/11/26 07:40:20;;;;;;;9.00;2.70;;;;;;;-2.09;88.53;98962.73;216678;1265;140087;-68
2023/11/26 07:45:25;;;;;;;4.10;3.70;;;;;;;-1.94;88.47;98971.20;217277;1265;232307;-67
2023/11/26 07:50:30;;;;;;;8.50;4.40;;;;;;;-1.79;88.22;98976.86;216877;1268;140761;-70
2023/11/26 07:55:36;;;;;;;10.20;3.80;;;;;;;-1.69;87.78;98982.70;219051;1265;139552;-68
2023/11/26 08:00:41;;;;;;;11.30;7.10;;;;;;;-1.62;87.66;98985.11;218251;1265;140229;-68
2023/11/26 08:05:48;;;;;;;7.60;3.70;;;;;;;-1.57;87.62;98991.64;218922;1265;139706;-69
2023/11/26 08:10:54;;;;;;;5.70;2.90;;;;;;;-1.54;87.17;98994.50;217703;1265;140161;-66
2023/11/26 08:15:59;;;;;;;4.60;3.60;;;;;;;-1.51;87.00;98994.65;217634;1267;139934;-67
2023/11/26 08:21:06;;;;;;;6.80;4.10;;;;;;;-1.47;86.99;99003.86;217794;1265;139705;-67
2023/11/26 08:26:15;;;;;;;5.90;4.30;;;;;;;-1.38;87.11;99005.66;217768;1268;140319;-68
2023/11/26 08:31:50;;;;;;;10.10;3.80;;;;;;;-1.28;87.12;99009.73;217697;1268;140240;-69
2023/11/26 08:37:04;;;;;;;5.00;3.90;;;;;;;-1.18;86.78;99011.69;217097;1265;140690;-69
2023/11/26 08:42:19;;;;;;;6.10;3.60;;;;;;;-1.09;86.75;99017.44;217293;1266;139311;-66
2023/11/26 08:47:28;;;;;;;7.30;3.30;;;;;;;-0.97;86.56;99025.15;217072;1265;139872;-68
2023/11/26 08:52:34;;;;;;;4.60;3.40;;;;;;;-0.87;86.59;99027.09;217512;1265;139709;-67
2023/11/26 08:57:42;;;;;;;4.30;2.70;;;;;;;-0.78;86.37;99027.44;216607;1268;139929;-66
2023/11/26 09:02:46;;;;;;;4.40;3.30;;;;;;;-0.75;86.25;99030.88;217926;1265;139671;-66
2023/11/26 09:07:51;;;;;;;6.60;2.90;;;;;;;-0.73;86.13;99039.27;217610;1266;141382;-68
2023/11/26 09:12:56;;;;;;;3.10;2.90;;;;;;;-0.73;86.17;99039.10;217136;1265;139530;-67
2023/11/26 09:18:00;;;;;;;10.40;6.30;;;;;;;-0.71;85.78;99036.73;216632;1265;139681;-66
2023/11/26 09:23:07;;;;;;;8.30;4.50;;;;;;;-0.68;85.91;99037.05;216820;1265;140328;-67
2023/11/26 09:28:12;;;;;;;6.10;3.50;;;;;;;-0.66;86.03;99039.53;217153;1265;139795;-69
2023/11/26 09:33:16;;;;;;;7.50;5.10;;;;;;;-0.62;86.10;99040.88;217032;1268;140141;-67
2023/11/26 09:38:22;;;;;;;5.80;3.60;;;;;;;-0.61;85.54;99039.80;216944;1268;140910;-68
2023/11/26 09:43:31;;;;;;;24.00;9.70;;;;;;;-0.55;86.14;99045.08;217598;1265;140046;-68
2023/11/26 09:48:37;;;;;;;13.90;8.40;;;;;;;-0.44;85.85;99042.45;217103;1265;139818;-70
2023/11/26 09:53:41;;;;;;;10.20;6.50;;;;;;;-0.28;85.79;99042.16;218154;1265;139988;-68
2023/11/26 09:58:45;;;;;;;7.80;4.20;;;;;;;-0.09;85.31;99039.52;216696;1266;139925;-66
2023/11/26 10:04:00;;;;;;;10.10;6.40;;;;;;;0.21;85.56;99040.59;217987;1264;140417;-67
2023/11/26 10:09:18;;;;;;;17.80;8.30;;;;;;;0.29;84.96;99045.65;217680;1265;140810;-68
2023/11/26 10:14:23;;;;;;;16.90;8.00;;;;;;;0.28;84.50;99047.25;217477;1266;139606;-66
2023/11/26 10:19:30;;;;;;;22.90;9.70;;;;;;;0.20;84.13;99054.77;217546;1265;139883;-65
2023/11/26 10:24:35;;;;;;;12.40;6.00;;;;;;;0.16;84.17;99058.47;216887;1265;160052;-65
2023/11/26 10:29:42;;;;;;;16.80;7.20;;;;;;;0.08;84.10;99062.69;218384;1265;140285;-66
2023/11/26 10:34:55;;;;;;;16.90;7.70;;;;;;;0.03;84.19;99071.17;216761;1264;139526;-66
2023/11/26 10:40:06;;;;;;;25.80;8.50;;;;;;;0.02;83.97;99072.40;217850;1265;141609;-68
2023/11/26 10:45:12;;;;;;;24.40;11.10;;;;;;;0.01;83.91;99069.90;217085;1266;139910;-67
2023/11/26 10:50:17;;;;;;;20.50;7.60;;;;;;;0.05;83.90;99072.73;217894;1265;164630;-69
2023/11/26 10:55:30;;;;;;;15.30;8.00;;;;;;;0.14;83.88;99064.85;216356;1265;139847;-66
2023/11/26 11:00:37;;;;;;;15.60;8.10;;;;;;;0.23;84.21;99057.46;216533;1265;139441;-66
2023/11/26 11:05:42;;;;;;;26.20;10.00;;;;;;;0.27;84.02;99049.94;216872;1268;140412;-67
2023/11/26 11:11:09;;;;;;;15.20;6.70;;;;;;;0.36;83.93;99051.53;217372;1265;140182;-67
2023/11/26 11:16:14;;;;;;;13.80;6.50;;;;;;;0.44;83.54;99052.48;216701;1266;139928;-69
2023/11/26 11:21:19;;;;;;;16.40;8.00;;;;;;;0.51;83.85;99056.15;216469;1265;140004;-67
2023/11/26 11:26:26;;;;;;;9.70;6.40;;;;;;;0.52;83.58;99057.90;217662;1265;141412;-67
2023/11/26 11:31:58;;;;;;;13.00;7.70;;;;;;;0.53;83.42;99055.20;217755;1265;139476;-67
2023/11/26 11:37:03;;;;;;;7.90;6.00;;;;;;;0.49;83.00;99066.33;217148;1265;230473;-68
2023/11/26 11:42:10;;;;;;;6.90;4.00;;;;;;;0.40;82.87;99079.10;218517;1265;139802;-69
2023/11/26 11:47:37;;;;;;;;;;;;;;;0.37;82.64;99083.58;216810;1268;139780;-68
2023/11/26 11:52:44;;;;;;;7.20;4.30;;;;;;;0.35;82.76;99085.34;218058;1265;126991;-69
2023/11/26 11:57:51;;;;;;;6.00;4.50;;;;;;;0.35;82.44;99087.98;218060;1265;140244;-69
2023/11/26 12:02:56;;;;;;;10.20;4.80;;;;;;;0.37;82.43;99086.52;217637;1265;140039;-69
2023/11/26 12:08:00;;;;;;;16.10;7.00;;;;;;;0.48;82.65;99080.67;219010;1265;142696;-69
2023/11/26 12:13:08;;;;;;;10.50;3.30;;;;;;;0.55;82.05;99078.31;218755;1265;139767;-71
2023/11/26 12:18:16;;;;;;;23.10;7.50;;;;;;;0.61;82.11;99074.89;218687;1265;140397;-69
2023/11/26 12:23:34;;;;;;;10.50;4.80;;;;;;;0.64;81.91;99079.27;217465;1264;140577;-69
2023/11/26 12:28:44;;;;;;;22.00;7.40;;;;;;;0.65;82.22;99077.58;216431;1265;139749;-68
2023/11/26 12:33:54;;;;;;;36.90;12.90;;;;;;;0.61;81.50;99076.79;218743;1265;140182;-68
2023/11/26 12:39:01;;;;;;;31.70;9.10;;;;;;;0.51;81.13;99085.52;216653;1266;212225;-69
2023/11/26 12:44:06;;;;;;;18.10;6.70;;;;;;;0.44;80.95;99090.36;217219;1264;140180;-71
2023/11/26 12:49:21;;;;;;;16.90;7.30;;;;;;;0.37;81.11;99094.80;216586;1265;140827;-71
2023/11/26 12:54:25;;;;;;;25.60;11.50;;;;;;;0.25;80.84;99101.92;217792;1264;141479;-71
2023/11/26 12:59:50;;;;;;;28.00;13.00;;;;;;;0.18;80.88;99107.33;216632;1265;140267;-70
2023/11/26 13:04:57;;;;;;;14.40;5.60;;;;;;;0.18;80.63;99109.27;217085;1268;139902;-71
2023/11/26 13:10:08;;;;;;;24.10;8.40;;;;;;;0.09;80.64;99116.27;216611;1265;140639;-70
2023/11/26 13:15:14;;;;;;;12.40;5.80;;;;;;;0.04;80.59;99115.09;218211;1264;140629;-71
2023/11/26 13:20:22;;;;;;;23.80;9.30;;;;;;;0.02;80.58;99115.13;217509;1265;140503;-70
2023/11/26 13:25:35;;;;;;;13.20;4.40;;;;;;;0.02;80.15;99116.87;217474;1265;139334;-69
2023/11/26 13:31:07;;;;;;;18.20;5.80;;;;;;;-0.03;80.04;99114.02;216697;1265;139609;-68
2023/11/26 13:36:13;;;;;;;13.10;6.90;;;;;;;-0.08;79.94;99113.73;218337;1265;141404;-68
2023/11/26 13:41:20;;;;;;;26.70;11.20;;;;;;;-0.13;79.72;99112.58;218320;1265;140613;-68
2023/11/26 13:46:26;;;;;;;19.20;6.90;;;;;;;-0.14;79.91;99120.29;216542;1268;142841;-68
2023/11/26 13:51:35;;;;;;;16.50;5.90;;;;;;;-0.10;79.87;99127.61;219105;1265;140865;-69
2023/11/26 13:56:42;;;;;;;16.10;7.60;;;;;;;-0.10;79.85;99120.52;219177;1265;140147;-69
2023/11/26 14:01:47;;;;;;;16.60;8.60;;;;;;;-0.10;79.57;99119.75;216602;1268;139716;-68
2023/11/26 14:06:58;;;;;;;16.30;9.90;;;;;;;-0.11;79.49;99113.96;218531;1265;142756;-68
2023/11/26 14:12:06;;;;;;;16.30;9.50;;;;;;;-0.14;79.32;99122.55;216868;1265;140615;-68
2023/11/26 14:17:14;;;;;;;7.50;4.40;;;;;;;-0.23;79.20;99129.48;216375;1265;140879;-69
2023/11/26 14:22:26;;;;;;;9.50;4.60;;;;;;;-0.32;79.58;99122.74;218241;1264;151135;-68
2023/11/26 14:27:35;;;;;;;5.50;3.90;;;;;;;-0.37;79.46;99118.22;216787;1265;140059;-68
2023/11/26 14:32:43;;;;;;;10.10;5.10;;;;;;;-0.42;79.43;99118.62;218306;1265;140053;-69
2023/11/26 14:37:54;;;;;;;7.10;4.70;;;;;;;-0.51;79.55;99124.57;216510;1268;140914;-69
2023/11/26 14:42:59;;;;;;;14.40;6.70;;;;;;;-0.53;79.41;99128.30;217842;1264;140655;-70
2023/11/26 14:48:08;;;;;;;15.00;7.10;;;;;;;-0.58;79.59;99125.93;216904;1265;140325;-68
2023/11/26 14:53:15;;;;;;;11.30;6.00;;;;;;;-0.64;79.60;99122.68;216404;1266;140274;-68
2023/11/26 14:58:23;;;;;;;9.40;5.60;;;;;;;-0.69;79.58;99122.15;216342;1266;140108;-68
2023/11/26 15:03:31;;;;;;;13.00;5.90;;;;;;;-0.76;79.97;99116.50;216250;1265;139992;-68
2023/11/26 15:08:38;;;;;;;8.60;4.80;;;;;;;-0.81;79.83;99123.73;216983;1265;139903;-68
2023/11/26 15:13:47;;;;;;;7.80;5.40;;;;;;;-0.87;79.65;99132.14;217259;1266;141620;-69
2023/11/26 15:18:56;;;;;;;4.80;3.20;;;;;;;-0.91;79.83;99135.02;217288;1266;140875;-68
2023/11/26 15:24:05;;;;;;;9.30;4.50;;;;;;;-0.94;79.83;99134.02;216839;1268;139384;-69
2023/11/26 15:29:17;;;;;;;8.40;4.60;;;;;;;-0.97;79.88;99135.23;216545;1268;140458;-68
2023/11/26 15:34:25;;;;;;;6.60;4.80;;;;;;;-1.00;80.03;99130.86;218072;1264;140032;-69
2023/11/26 15:39:32;;;;;;;8.30;5.00;;;;;;;-1.03;79.98;99134.77;217688;1264;139636;-69
2023/11/26 15:44:39;;;;;;;12.60;7.10;;;;;;;-1.05;79.68;99129.58;218399;1265;139770;-72
2023/11/26 15:49:45;;;;;;;15.90;7.20;;;;;;;-1.06;79.77;99131.68;219365;1264;140548;-72
2023/11/26 15:54:49;;;;;;;12.10;4.90;;;;;;;-1.04;79.62;99123.72;218824;1264;140540;-72
2023/11/26 15:59:54;;;;;;;6.30;4.80;;;;;;;-1.04;79.66;99118.01;218167;1264;140880;-71
2023/11/26 16:05:00;;;;;;;8.30;4.50;;;;;;;-1.04;79.40;99120.61;218654;1265;141647;-68
2023/11/26 16:10:05;;;;;;;9.80;6.30;;;;;;;-1.08;79.35;99124.86;217472;1265;142177;-71
2023/11/26 16:15:10;;;;;;;6.90;5.50;;;;;;;-1.12;79.60;99130.02;218560;1264;139619;-71
2023/11/26 16:20:15;;;;;;;9.30;5.50;;;;;;;-1.17;79.90;99133.97;216527;1265;139574;-69
2023/11/26 16:25:20;;;;;;;6.80;5.20;;;;;;;-1.20;79.66;99138.63;216965;1266;140957;-68
2023/11/26 16:30:25;;;;;;;7.90;6.50;;;;;;;-1.25;79.86;99139.48;217943;1265;139604;-68
2023/11/26 16:35:29;;;;;;;8.00;5.80;;;;;;;-1.29;80.09;99137.08;217288;1266;139694;-69
2023/11/26 16:40:33;;;;;;;12.30;6.60;;;;;;;-1.35;79.90;99143.39;216486;1268;140010;-68
2023/11/26 16:45:42;;;;;;;9.70;4.50;;;;;;;-1.38;80.15;99145.39;217634;1266;142599;-69
2023/11/26 16:50:47;;;;;;;12.90;6.60;;;;;;;-1.40;80.23;99150.31;216725;1265;139510;-68
2023/11/26 16:55:52;;;;;;;14.30;7.60;;;;;;;-1.37;80.26;99147.77;217637;1264;141814;-69
2023/11/26 17:00:59;;;;;;;9.20;5.30;;;;;;;-1.37;80.28;99146.69;216509;1265;139893;-69
2023/11/26 17:06:07;;;;;;;14.30;6.00;;;;;;;-1.37;80.51;99144.31;216630;1266;139736;-68
2023/11/26 17:11:13;;;;;;;14.00;8.50;;;;;;;-1.39;80.46;99140.46;218123;1266;141186;-68
2023/11/26 17:16:24;;;;;;;5.90;4.20;;;;;;;-1.39;80.70;99144.09;216437;1265;140012;-69
2023/11/26 17:21:35;;;;;;;10.70;5.20;;;;;;;-1.42;80.68;99149.20;217333;1268;140461;-67
2023/11/26 17:26:42;;;;;;;11.70;6.00;;;;;;;-1.43;80.65;99147.21;216496;1264;139613;-67
2023/11/26 17:31:54;;;;;;;7.10;5.00;;;;;;;-1.48;80.55;99155.57;216634;1266;139882;-68
2023/11/26 17:37:00;;;;;;;7.60;4.90;;;;;;;-1.50;80.71;99155.80;217661;1264;238279;-69
2023/11/26 17:42:07;;;;;;;12.10;4.30;;;;;;;-1.52;80.62;99155.33;219330;1264;141420;-69
2023/11/26 17:47:40;;;;;;;6.20;5.00;;;;;;;-1.53;80.76;99150.26;219400;1265;140455;-71
2023/11/26 17:52:49;;;;;;;6.70;3.80;;;;;;;-1.50;80.66;99157.93;219437;1265;141044;-70
2023/11/26 17:58:07;;;;;;;9.70;5.00;;;;;;;-1.46;80.43;99160.34;218127;1268;139761;-71
2023/11/26 18:03:12;;;;;;;6.10;5.20;;;;;;;-1.47;80.50;99169.09;218183;1264;139845;-70
2023/11/26 18:08:20;;;;;;;9.00;5.20;;;;;;;-1.52;80.47;99171.17;218150;1266;141151;-69
2023/11/26 18:13:26;;;;;;;8.30;4.70;;;;;;;-1.56;80.46;99166.13;216875;1268;139551;-68
2023/11/26 18:18:42;;;;;;;9.80;5.20;;;;;;;-1.61;80.52;99166.31;217909;1265;140016;-68
2023/11/26 18:23:50;;;;;;;10.10;6.90;;;;;;;-1.65;80.76;99172.37;217021;1265;139880;-68
2023/11/26 18:28:54;;;;;;;13.20;4.80;;;;;;;-1.65;80.72;99169.14;216708;1265;140090;-67
2023/11/26 18:34:00;;;;;;;9.50;5.50;;;;;;;-1.67;80.74;99168.91;218125;1265;140151;-67
2023/11/26 18:39:18;;;;;;;10.30;5.80;;;;;;;-1.70;80.76;99167.88;216422;1266;140361;-68
2023/11/26 18:44:32;;;;;;;8.30;5.70;;;;;;;-1.75;80.56;99169.75;217071;1268;247392;-68
2023/11/26 18:49:40;;;;;;;10.70;5.70;;;;;;;-1.76;80.82;99167.23;219521;1265;140206;-69
2023/11/26 18:54:45;;;;;;;11.60;5.90;;;;;;;-1.75;80.74;99168.05;219344;1265;140949;-69
2023/11/26 18:59:53;;;;;;;10.70;6.10;;;;;;;-1.75;80.84;99165.96;219319;1265;140747;-69
2023/11/26 19:04:58;;;;;;;8.90;6.80;;;;;;;-1.71;80.90;99171.73;219514;1265;141238;-69
2023/11/26 19:10:04;;;;;;;11.80;6.10;;;;;;;-1.66;80.77;99170.27;219339;1265;139727;-69
2023/11/26 19:15:08;;;;;;;9.40;4.90;;;;;;;-1.61;80.91;99174.02;219418;1265;140313;-69
2023/11/26 19:20:12;;;;;;;7.60;7.00;;;;;;;-1.57;80.77;99172.77;219437;1265;140074;-69
2023/11/26 19:25:23;;;;;;;10.70;6.00;;;;;;;-1.54;80.82;99170.90;219362;1266;140049;-68
2023/11/26 19:30:29;;;;;;;12.20;4.90;;;;;;;-1.50;80.85;99169.31;219467;1266;140557;-68
2023/11/26 19:41:11;;;;;;;8.50;5.30;;;;;;;-1.41;80.63;99157.83;215105;1296;636161;-69
2023/11/26 19:46:17;;;;;;;8.50;5.80;;;;;;;-1.42;80.39;99157.05;219170;1268;138793;-70
2023/11/26 19:51:23;;;;;;;7.80;5.10;;;;;;;-1.41;80.63;99167.89;218287;1267;345048;-69
2023/11/26 19:56:31;;;;;;;6.70;3.90;;;;;;;-1.40;80.17;99169.52;217331;1267;139044;-68
2023/11/26 20:01:49;;;;;;;9.20;5.00;;;;;;;-1.43;80.34;99170.88;217420;1260;138671;-68
2023/11/26 20:06:53;;;;;;;8.70;4.70;;;;;;;-1.45;80.50;99167.00;217969;1257;139158;-68
2023/11/26 20:12:01;;;;;;;8.00;5.00;;;;;;;-1.45;80.50;99164.34;217420;1257;140135;-67
2023/11/26 20:17:09;;;;;;;10.60;3.30;;;;;;;-1.45;80.56;99166.47;219255;1257;150145;-68
2023/11/26 20:22:17;;;;;;;15.80;5.90;;;;;;;-1.46;80.68;99156.48;217666;1257;138922;-67
2023/11/26 20:27:22;;;;;;;9.30;5.50;;;;;;;-1.48;80.57;99155.31;218504;1257;140607;-67
2023/11/26 20:32:27;;;;;;;13.50;6.00;;;;;;;-1.51;80.68;99147.75;217821;1257;139144;-67
2023/11/26 20:37:31;;;;;;;11.10;5.80;;;;;;;-1.55;80.65;99145.95;217421;1261;139927;-67
2023/11/26 20:42:35;;;;;;;11.30;5.60;;;;;;;-1.57;80.72;99143.98;218051;1260;141431;-69
2023/11/26 20:47:43;;;;;;;10.60;6.90;;;;;;;-1.57;80.69;99144.44;217302;1261;140179;-68
2023/11/26 20:52:47;;;;;;;7.50;3.90;;;;;;;-1.59;80.55;99154.93;217084;1259;139636;-67
2023/11/26 20:57:55;;;;;;;;;;;;;;;-1.61;80.64;99153.83;218089;1258;139218;-67
2023/11/26 21:03:02;;;;;;;10.20;5.40;;;;;;;-1.62;80.73;99151.67;217653;1257;126316;-67
2023/11/26 21:08:06;;;;;;;9.50;5.70;;;;;;;-1.63;80.54;99146.19;218750;1256;139604;-68
2023/11/26 21:13:10;;;;;;;7.40;5.50;;;;;;;-1.63;80.68;99142.41;218117;1255;139141;-71
2023/11/26 21:18:16;;;;;;;203.50;81.50;;;;;;;-1.63;80.67;99137.44;217997;1256;140015;-67
2023/11/26 21:23:21;;;;;;;11.20;6.10;;;;;;;-1.62;80.78;99139.27;218786;1255;140621;-68
2023/11/26 21:28:26;;;;;;;13.00;7.40;;;;;;;-1.61;80.72;99135.86;218118;1256;139250;-68
2023/11/26 21:33:30;;;;;;;14.50;6.20;;;;;;;-1.60;80.63;99128.05;218584;1255;139617;-67
2023/11/26 21:38:35;;;;;;;9.90;6.00;;;;;;;-1.60;80.73;99127.20;218364;1256;139149;-68
2023/11/26 21:43:40;;;;;;;11.50;6.80;;;;;;;-1.60;80.67;99123.41;219090;1258;138796;-67
2023/11/26 21:48:46;;;;;;;11.40;6.40;;;;;;;-1.58;80.74;99120.73;217961;1260;139525;-68
2023/11/26 21:53:52;;;;;;;7.90;4.70;;;;;;;-1.57;80.62;99120.78;218237;1256;139188;-68
2023/11/26 21:58:59;;;;;;;10.00;5.40;;;;;;;-1.58;80.47;99119.35;218349;1256;138906;-70
2023/11/26 22:04:04;;;;;;;8.80;5.90;;;;;;;-1.61;80.53;99118.45;217723;1256;138918;-65
2023/11/26 22:09:11;;;;;;;12.60;6.10;;;;;;;-1.63;80.59;99112.09;217772;1255;139358;-69
2023/11/26 22:14:16;;;;;;;14.20;6.40;;;;;;;-1.67;80.57;99112.66;217901;1256;139630;-73
2023/11/26 22:19:20;;;;;;;10.10;5.60;;;;;;;-1.68;80.51;99114.50;218463;1256;139329;-67
2023/11/26 22:24:25;;;;;;;10.80;5.10;;;;;;;-1.68;80.68;99111.27;218189;1260;139850;-68
2023/11/26 22:29:29;;;;;;;9.60;5.30;;;;;;;-1.68;80.51;99109.07;218297;1256;140280;-70
2023/11/26 22:34:34;;;;;;;14.80;7.30;;;;;;;-1.72;80.43;99114.02;217819;1259;139059;-68
2023/11/26 22:39:39;;;;;;;9.30;6.40;;;;;;;-1.74;80.67;99116.38;218341;1256;138639;-69
2023/11/26 22:44:44;;;;;;;8.90;4.90;;;;;;;-1.73;80.67;99112.06;218474;1254;141183;-67
2023/11/26 22:49:49;;;;;;;44.10;25.70;;;;;;;-1.74;80.57;99100.15;217974;1257;140243;-66
2023/11/26 22:54:55;;;;;;;18.10;9.90;;;;;;;-1.77;80.82;99104.70;218666;1254;139373;-66
2023/11/26 23:00:01;;;;;;;10.70;6.40;;;;;;;-1.75;80.52;99110.20;218501;1254;139584;-66
2023/11/26 23:05:06;;;;;;;11.20;7.60;;;;;;;-1.77;80.37;99114.08;218277;1257;139332;-65
2023/11/26 23:10:14;;;;;;;10.40;7.40;;;;;;;-1.81;80.53;99113.98;218221;1254;139565;-67
2023/11/26 23:15:20;;;;;;;11.80;7.50;;;;;;;-1.79;80.53;99111.37;218651;1254;139148;-65
2023/11/26 23:20:25;;;;;;;12.90;6.50;;;;;;;-1.79;81.05;99117.05;218926;1254;139668;-65
2023/11/26 23:25:31;;;;;;;14.60;5.00;;;;;;;-1.74;80.95;99121.80;218491;1256;140134;-67
2023/11/26 23:30:37;;;;;;;11.30;6.40;;;;;;;-1.73;80.95;99119.38;219602;1253;140156;-66
2023/11/26 23:35:42;;;;;;;8.90;4.90;;;;;;;-1.71;80.94;99116.23;219339;1254;139948;-69